sensor_id;sensor_type;location;lat;lon;timestamp;pressure;altitude;pressure_sealevel;temperature;humidity
61568;BME280;47462;59.172;17.196;2022-12-16T00:02:15;100616.31;;;-13.82;68.66
61568;BME280;47462;59.172;17.196;2022-12-16T00:04:40;100577.69;;;-14.09;69.15
61568;BME280;47462;59.172;17.196;2022-12-16T00:07:06;100618.41;;;-13.88;68.83
61568;BME280;47462;59.172;17.196;2022-12-16T00:09:31;100624.97;;;-13.90;69.10
61568;BME280;47462;59.172;17.196;2022-12-16T00:11:56;100490.94;;;-14.69;68.89
61568;BME280;47462;59.172;17.196;2022-12-16T00:14:22;100551.63;;;-14.36;69.09
61568;BME280;47462;59.172;17.196;2022-12-16T00:16:47;100638.16;;;-13.92;69.01
61568;BME280;47462;59.172;17.196;2022-12-16T00:19:13;100260.66;;;-16.16;68.56
61568;BME280;47462;59.172;17.196;2022-12-16T00:21:38;100606.59;;;-14.14;68.60
61568;BME280;47462;59.172;17.196;2022-12-16T00:24:03;100645.56;;;-13.94;68.70
61568;BME280;47462;59.172;17.196;2022-12-16T00:26:29;100641.22;;;-13.96;68.94
61568;BME280;47462;59.172;17.196;2022-12-16T00:28:55;100645.06;;;-14.02;68.96
61568;BME280;47462;59.172;17.196;2022-12-16T00:31:20;100640.91;;;-14.01;68.79
61568;BME280;47462;59.172;17.196;2022-12-16T00:33:46;100641.00;;;-14.00;68.38
61568;BME280;47462;59.172;17.196;2022-12-16T00:36:11;100617.28;;;-14.17;68.60
61568;BME280;47462;59.172;17.196;2022-12-16T00:38:37;100632.97;;;-14.07;68.06
61568;BME280;47462;59.172;17.196;2022-12-16T00:41:02;100634.72;;;-14.06;68.31
61568;BME280;47462;59.172;17.196;2022-12-16T00:43:27;100602.41;;;-14.27;68.44
61568;BME280;47462;59.172;17.196;2022-12-16T00:45:53;100541.25;;;-14.66;68.03
61568;BME280;47462;59.172;17.196;2022-12-16T00:48:18;100642.13;;;-14.08;68.40
61568;BME280;47462;59.172;17.196;2022-12-16T00:50:51;100648.09;;;-14.06;68.28
61568;BME280;47462;59.172;17.196;2022-12-16T00:53:17;100626.56;;;-14.15;68.16
61568;BME280;47462;59.172;17.196;2022-12-16T00:55:42;100627.31;;;-14.17;68.31
61568;BME280;47462;59.172;17.196;2022-12-16T00:58:08;100627.53;;;-14.13;68.43
61568;BME280;47462;59.172;17.196;2022-12-16T01:00:34;100654.22;;;-14.02;68.21
61568;BME280;47462;59.172;17.196;2022-12-16T01:02:59;100652.25;;;-14.06;68.20
61568;BME280;47462;59.172;17.196;2022-12-16T01:05:26;100652.69;;;-14.00;68.51
61568;BME280;47462;59.172;17.196;2022-12-16T01:07:52;100656.72;;;-14.02;68.22
61568;BME280;47462;59.172;17.196;2022-12-16T01:10:23;100636.16;;;-14.10;68.12
61568;BME280;47462;59.172;17.196;2022-12-16T01:12:49;100655.09;;;-14.02;68.53
61568;BME280;47462;59.172;17.196;2022-12-16T01:15:15;100595.84;;;-14.37;68.38
61568;BME280;47462;59.172;17.196;2022-12-16T01:17:41;100660.09;;;-14.02;68.61
61568;BME280;47462;59.172;17.196;2022-12-16T01:20:07;100639.75;;;-14.18;68.55
61568;BME280;47462;59.172;17.196;2022-12-16T01:22:33;100670.34;;;-14.10;68.31
61568;BME280;47462;59.172;17.196;2022-12-16T01:24:59;100667.00;;;-14.11;68.54
61568;BME280;47462;59.172;17.196;2022-12-16T01:27:26;100662.09;;;-14.09;68.76
61568;BME280;47462;59.172;17.196;2022-12-16T01:29:51;100484.38;;;-15.16;68.44
61568;BME280;47462;59.172;17.196;2022-12-16T01:32:17;100664.81;;;-14.06;68.61
61568;BME280;47462;59.172;17.196;2022-12-16T01:34:42;100641.06;;;-14.23;67.92
61568;BME280;47462;59.172;17.196;2022-12-16T01:37:12;100661.75;;;-14.14;68.06
61568;BME280;47462;59.172;17.196;2022-12-16T01:39:37;100665.59;;;-14.19;68.18
61568;BME280;47462;59.172;17.196;2022-12-16T01:42:09;100658.72;;;-14.22;67.95
61568;BME280;47462;59.172;17.196;2022-12-16T01:44:35;100659.38;;;-14.24;67.91
61568;BME280;47462;59.172;17.196;2022-12-16T01:47:04;100644.59;;;-14.33;68.28
61568;BME280;47462;59.172;17.196;2022-12-16T01:49:36;100676.28;;;-14.22;68.25
61568;BME280;47462;59.172;17.196;2022-12-16T01:52:06;100614.75;;;-14.54;68.17
61568;BME280;47462;59.172;17.196;2022-12-16T01:54:37;100667.69;;;-14.25;68.18
61568;BME280;47462;59.172;17.196;2022-12-16T01:57:20;100667.69;;;-14.25;68.08
61568;BME280;47462;59.172;17.196;2022-12-16T01:59:50;100676.50;;;-14.19;68.25
61568;BME280;47462;59.172;17.196;2022-12-16T02:02:17;100610.47;;;-14.55;68.26
61568;BME280;47462;59.172;17.196;2022-12-16T02:04:42;100261.47;;;-17.10;68.12
61568;BME280;47462;59.172;17.196;2022-12-16T02:07:29;100620.28;;;-14.58;68.00
61568;BME280;47462;59.172;17.196;2022-12-16T02:09:57;100649.94;;;-14.40;68.08
61568;BME280;47462;59.172;17.196;2022-12-16T02:12:43;100678.25;;;-14.29;68.27
61568;BME280;47462;59.172;17.196;2022-12-16T02:15:23;100681.72;;;-14.27;68.22
61568;BME280;47462;59.172;17.196;2022-12-16T02:36:27;100690.56;;;-14.44;68.06
61568;BME280;47462;59.172;17.196;2022-12-16T02:41:40;100639.94;;;-14.87;67.73
61568;BME280;47462;59.172;17.196;2022-12-16T02:44:08;100576.97;;;-15.16;67.55
61568;BME280;47462;59.172;17.196;2022-12-16T02:46:43;100708.53;;;-14.50;67.84
61568;BME280;47462;59.172;17.196;2022-12-16T02:51:41;100688.41;;;-14.75;67.70
61568;BME280;47462;59.172;17.196;2022-12-16T02:54:08;100707.34;;;-14.55;67.80
61568;BME280;47462;59.172;17.196;2022-12-16T03:02:25;100701.78;;;-14.75;67.76
61568;BME280;47462;59.172;17.196;2022-12-16T03:05:00;100645.47;;;-15.15;67.54
61568;BME280;47462;59.172;17.196;2022-12-16T03:07:30;100711.94;;;-14.73;67.90
61568;BME280;47462;59.172;17.196;2022-12-16T03:09:59;100126.72;;;-18.56;67.43
61568;BME280;47462;59.172;17.196;2022-12-16T03:12:26;100581.84;;;-15.41;67.76
61568;BME280;47462;59.172;17.196;2022-12-16T03:14:53;100730.97;;;-14.51;67.58
61568;BME280;47462;59.172;17.196;2022-12-16T03:17:22;100690.81;;;-14.77;67.42
61568;BME280;47462;59.172;17.196;2022-12-16T03:19:55;100736.56;;;-14.56;67.67
61568;BME280;47462;59.172;17.196;2022-12-16T03:22:24;100737.41;;;-14.55;67.43
61568;BME280;47462;59.172;17.196;2022-12-16T03:24:55;100695.69;;;-14.78;67.33
61568;BME280;47462;59.172;17.196;2022-12-16T03:27:28;100696.78;;;-14.86;67.62
61568;BME280;47462;59.172;17.196;2022-12-16T03:30:08;100752.78;;;-14.62;67.52
61568;BME280;47462;59.172;17.196;2022-12-16T03:37:39;100756.28;;;-14.72;67.50
61568;BME280;47462;59.172;17.196;2022-12-16T03:40:10;100693.69;;;-15.06;67.03
61568;BME280;47462;59.172;17.196;2022-12-16T03:42:36;100749.94;;;-14.79;67.15
61568;BME280;47462;59.172;17.196;2022-12-16T03:45:04;100750.38;;;-14.84;67.18
61568;BME280;47462;59.172;17.196;2022-12-16T03:47:30;100726.69;;;-15.00;66.84
61568;BME280;47462;59.172;17.196;2022-12-16T03:49:56;100738.47;;;-14.99;66.85
61568;BME280;47462;59.172;17.196;2022-12-16T03:52:21;100787.38;;;-14.92;66.83
61568;BME280;47462;59.172;17.196;2022-12-16T03:54:46;100757.72;;;-14.98;67.05
61568;BME280;47462;59.172;17.196;2022-12-16T03:57:12;100752.06;;;-14.95;66.67
61568;BME280;47462;59.172;17.196;2022-12-16T03:59:38;100755.66;;;-14.92;66.91
61568;BME280;47462;59.172;17.196;2022-12-16T04:02:03;100655.06;;;-15.44;66.98
61568;BME280;47462;59.172;17.196;2022-12-16T04:04:29;100749.28;;;-14.88;67.05
61568;BME280;47462;59.172;17.196;2022-12-16T04:06:54;100404.38;;;-17.00;66.55
61568;BME280;47462;59.172;17.196;2022-12-16T04:09:38;100766.88;;;-14.98;66.80
61568;BME280;47462;59.172;17.196;2022-12-16T04:12:04;100778.88;;;-15.16;66.76
61568;BME280;47462;59.172;17.196;2022-12-16T04:14:47;100735.09;;;-15.55;66.94
61568;BME280;47462;59.172;17.196;2022-12-16T04:17:31;100581.34;;;-16.49;67.10
61568;BME280;47462;59.172;17.196;2022-12-16T04:20:28;100773.94;;;-15.27;67.09
61568;BME280;47462;59.172;17.196;2022-12-16T04:23:14;100739.91;;;-15.47;67.31
61568;BME280;47462;59.172;17.196;2022-12-16T04:25:58;100783.16;;;-15.15;67.01
61568;BME280;47462;59.172;17.196;2022-12-16T04:28:24;100787.41;;;-15.14;67.32
61568;BME280;47462;59.172;17.196;2022-12-16T04:30:49;100703.94;;;-15.59;67.28
61568;BME280;47462;59.172;17.196;2022-12-16T04:33:15;100797.56;;;-15.01;67.30
61568;BME280;47462;59.172;17.196;2022-12-16T04:35:59;100802.91;;;-14.96;67.68
61568;BME280;47462;59.172;17.196;2022-12-16T04:38:43;100830.56;;;-14.95;67.08
61568;BME280;47462;59.172;17.196;2022-12-16T04:41:27;100776.16;;;-15.19;67.16
61568;BME280;47462;59.172;17.196;2022-12-16T04:44:11;100813.47;;;-15.00;67.55
61568;BME280;47462;59.172;17.196;2022-12-16T04:46:55;100831.63;;;-15.03;66.98
61568;BME280;47462;59.172;17.196;2022-12-16T04:49:39;100811.72;;;-15.01;67.44
61568;BME280;47462;59.172;17.196;2022-12-16T04:52:26;100783.03;;;-15.17;67.22
61568;BME280;47462;59.172;17.196;2022-12-16T04:55:11;100801.81;;;-15.00;67.14
61568;BME280;47462;59.172;17.196;2022-12-16T04:57:58;100722.38;;;-15.47;67.28
61568;BME280;47462;59.172;17.196;2022-12-16T05:00:43;100821.44;;;-14.94;67.14
61568;BME280;47462;59.172;17.196;2022-12-16T05:03:28;100810.41;;;-15.08;67.10
61568;BME280;47462;59.172;17.196;2022-12-16T05:06:12;100818.13;;;-15.05;67.50
61568;BME280;47462;59.172;17.196;2022-12-16T05:08:56;100806.88;;;-15.10;67.40
61568;BME280;47462;59.172;17.196;2022-12-16T05:11:41;100811.78;;;-15.12;67.59
61568;BME280;47462;59.172;17.196;2022-12-16T05:14:25;100481.38;;;-17.05;67.43
61568;BME280;47462;59.172;17.196;2022-12-16T05:17:09;100805.63;;;-15.49;67.53
61568;BME280;47462;59.172;17.196;2022-12-16T05:19:53;100753.78;;;-15.40;67.41
61568;BME280;47462;59.172;17.196;2022-12-16T05:22:37;100842.13;;;-14.97;67.55
61568;BME280;47462;59.172;17.196;2022-12-16T05:25:21;100821.63;;;-15.03;67.47
61568;BME280;47462;59.172;17.196;2022-12-16T05:28:05;100826.63;;;-15.03;67.35
61568;BME280;47462;59.172;17.196;2022-12-16T05:30:49;100635.84;;;-16.23;67.17
61568;BME280;47462;59.172;17.196;2022-12-16T05:33:33;100807.16;;;-15.17;67.49
61568;BME280;47462;59.172;17.196;2022-12-16T05:36:20;100834.13;;;-15.03;67.68
61568;BME280;47462;59.172;17.196;2022-12-16T05:39:04;100851.31;;;-15.08;67.54
61568;BME280;47462;59.172;17.196;2022-12-16T05:41:49;100836.19;;;-15.09;67.35
61568;BME280;47462;59.172;17.196;2022-12-16T05:44:32;100819.44;;;-15.20;67.57
61568;BME280;47462;59.172;17.196;2022-12-16T05:47:16;100842.41;;;-15.04;67.24
61568;BME280;47462;59.172;17.196;2022-12-16T05:50:00;100848.41;;;-15.02;67.53
61568;BME280;47462;59.172;17.196;2022-12-16T05:52:49;100820.28;;;-15.32;67.59
61568;BME280;47462;59.172;17.196;2022-12-16T05:55:33;100875.50;;;-15.08;67.75
61568;BME280;47462;59.172;17.196;2022-12-16T05:58:17;100848.31;;;-15.36;67.58
61568;BME280;47462;59.172;17.196;2022-12-16T06:01:01;100883.75;;;-15.09;67.58
61568;BME280;47462;59.172;17.196;2022-12-16T06:03:45;100880.72;;;-15.05;67.52
61568;BME280;47462;59.172;17.196;2022-12-16T06:06:29;100888.38;;;-15.03;67.50
61568;BME280;47462;59.172;17.196;2022-12-16T06:09:13;100856.28;;;-15.30;67.78
61568;BME280;47462;59.172;17.196;2022-12-16T06:11:57;100909.25;;;-15.03;67.87
61568;BME280;47462;59.172;17.196;2022-12-16T06:14:41;100898.66;;;-15.11;67.59
61568;BME280;47462;59.172;17.196;2022-12-16T06:17:25;100730.84;;;-16.11;67.45
61568;BME280;47462;59.172;17.196;2022-12-16T06:20:09;100915.13;;;-15.02;67.63
61568;BME280;47462;59.172;17.196;2022-12-16T06:22:53;100878.03;;;-15.18;67.52
61568;BME280;47462;59.172;17.196;2022-12-16T06:25:38;100563.84;;;-17.03;67.58
61568;BME280;47462;59.172;17.196;2022-12-16T06:28:22;100926.50;;;-14.96;67.34
61568;BME280;47462;59.172;17.196;2022-12-16T06:31:07;100897.59;;;-15.24;67.45
61568;BME280;47462;59.172;17.196;2022-12-16T06:33:50;100911.31;;;-15.19;67.49
61568;BME280;47462;59.172;17.196;2022-12-16T06:36:38;100931.44;;;-15.08;67.39
61568;BME280;47462;59.172;17.196;2022-12-16T06:39:22;101007.41;;;-15.07;67.35
61568;BME280;47462;59.172;17.196;2022-12-16T06:42:06;100951.34;;;-15.09;67.10
61568;BME280;47462;59.172;17.196;2022-12-16T06:44:50;100875.91;;;-15.46;67.28
61568;BME280;47462;59.172;17.196;2022-12-16T06:47:34;100953.06;;;-15.40;67.55
61568;BME280;47462;59.172;17.196;2022-12-16T06:50:18;100947.75;;;-15.13;67.55
61568;BME280;47462;59.172;17.196;2022-12-16T06:53:02;100904.66;;;-15.41;67.38
61568;BME280;47462;59.172;17.196;2022-12-16T06:55:46;100958.22;;;-15.06;67.50
61568;BME280;47462;59.172;17.196;2022-12-16T06:58:30;100940.84;;;-15.15;67.65
61568;BME280;47462;59.172;17.196;2022-12-16T07:01:14;100882.47;;;-15.58;67.49
61568;BME280;47462;59.172;17.196;2022-12-16T07:03:58;100887.66;;;-15.45;67.58
61568;BME280;47462;59.172;17.196;2022-12-16T07:06:42;100908.22;;;-15.27;67.68
61568;BME280;47462;59.172;17.196;2022-12-16T07:09:26;100962.56;;;-14.94;67.59
61568;BME280;47462;59.172;17.196;2022-12-16T07:12:10;100971.81;;;-14.93;67.36
61568;BME280;47462;59.172;17.196;2022-12-16T07:14:57;100996.09;;;-14.92;67.46
61568;BME280;47462;59.172;17.196;2022-12-16T07:17:44;100913.94;;;-15.18;67.84
61568;BME280;47462;59.172;17.196;2022-12-16T07:20:28;100963.41;;;-14.93;67.76
61568;BME280;47462;59.172;17.196;2022-12-16T07:23:12;100935.03;;;-15.26;67.75
61568;BME280;47462;59.172;17.196;2022-12-16T07:25:56;100799.59;;;-16.06;67.41
61568;BME280;47462;59.172;17.196;2022-12-16T07:28:54;100989.38;;;-15.03;67.85
61568;BME280;47462;59.172;17.196;2022-12-16T07:31:38;100985.91;;;-15.05;67.98
61568;BME280;47462;59.172;17.196;2022-12-16T07:34:22;100983.63;;;-15.02;67.68
61568;BME280;47462;59.172;17.196;2022-12-16T07:37:06;100813.63;;;-16.39;67.99
61568;BME280;47462;59.172;17.196;2022-12-16T07:39:50;100989.50;;;-15.01;68.00
61568;BME280;47462;59.172;17.196;2022-12-16T07:42:34;100767.31;;;-16.45;67.38
61568;BME280;47462;59.172;17.196;2022-12-16T07:45:18;101014.81;;;-15.09;67.50
61568;BME280;47462;59.172;17.196;2022-12-16T07:48:03;100992.25;;;-15.41;67.79
61568;BME280;47462;59.172;17.196;2022-12-16T07:50:47;100984.38;;;-15.46;67.66
61568;BME280;47462;59.172;17.196;2022-12-16T07:53:34;100799.78;;;-16.45;67.21
61568;BME280;47462;59.172;17.196;2022-12-16T07:56:18;101063.00;;;-15.01;67.49
61568;BME280;47462;59.172;17.196;2022-12-16T07:59:02;101046.72;;;-14.96;67.23
61568;BME280;47462;59.172;17.196;2022-12-16T08:01:46;101058.69;;;-14.92;67.25
61568;BME280;47462;59.172;17.196;2022-12-16T08:04:30;101057.47;;;-14.86;67.23
61568;BME280;47462;59.172;17.196;2022-12-16T08:07:14;101062.06;;;-14.81;67.15
61568;BME280;47462;59.172;17.196;2022-12-16T08:09:58;101070.94;;;-14.74;67.26
61568;BME280;47462;59.172;17.196;2022-12-16T08:12:42;101070.03;;;-14.64;67.17
61568;BME280;47462;59.172;17.196;2022-12-16T08:15:26;101073.38;;;-14.64;67.46
61568;BME280;47462;59.172;17.196;2022-12-16T08:18:10;101066.88;;;-14.62;67.28
61568;BME280;47462;59.172;17.196;2022-12-16T08:20:54;100990.03;;;-15.16;67.16
61568;BME280;47462;59.172;17.196;2022-12-16T08:23:38;101084.09;;;-14.55;67.74
61568;BME280;47462;59.172;17.196;2022-12-16T08:26:22;101071.19;;;-14.49;67.61
61568;BME280;47462;59.172;17.196;2022-12-16T08:29:06;100940.66;;;-15.29;67.37
61568;BME280;47462;59.172;17.196;2022-12-16T08:31:50;100821.28;;;-15.84;67.06
61568;BME280;47462;59.172;17.196;2022-12-16T08:34:34;101074.97;;;-14.32;67.10
61568;BME280;47462;59.172;17.196;2022-12-16T08:37:18;101085.66;;;-14.34;67.34
61568;BME280;47462;59.172;17.196;2022-12-16T08:40:05;101098.31;;;-14.33;67.60
61568;BME280;47462;59.172;17.196;2022-12-16T08:42:50;101106.31;;;-14.27;67.75
61568;BME280;47462;59.172;17.196;2022-12-16T08:45:33;101112.44;;;-14.23;67.49
61568;BME280;47462;59.172;17.196;2022-12-16T08:48:17;101064.81;;;-14.56;67.50
61568;BME280;47462;59.172;17.196;2022-12-16T08:51:03;101116.50;;;-14.13;67.62
61568;BME280;47462;59.172;17.196;2022-12-16T08:53:47;100729.59;;;-16.38;67.33
61568;BME280;47462;59.172;17.196;2022-12-16T08:56:31;101118.09;;;-14.04;67.62
61568;BME280;47462;59.172;17.196;2022-12-16T08:59:15;101127.72;;;-13.98;67.25
61568;BME280;47462;59.172;17.196;2022-12-16T09:01:59;101123.16;;;-13.92;67.10
61568;BME280;47462;59.172;17.196;2022-12-16T09:04:43;101080.75;;;-14.11;67.24
61568;BME280;47462;59.172;17.196;2022-12-16T09:07:27;101126.50;;;-13.81;67.24
61568;BME280;47462;59.172;17.196;2022-12-16T09:10:11;101103.31;;;-13.89;67.04
61568;BME280;47462;59.172;17.196;2022-12-16T09:13:11;101090.97;;;-13.97;66.69
61568;BME280;47462;59.172;17.196;2022-12-16T09:15:56;101055.81;;;-14.09;66.84
61568;BME280;47462;59.172;17.196;2022-12-16T09:18:43;101074.63;;;-13.92;66.90
61568;BME280;47462;59.172;17.196;2022-12-16T09:21:27;101105.72;;;-13.68;66.66
61568;BME280;47462;59.172;17.196;2022-12-16T09:24:11;101133.16;;;-13.48;66.81
61568;BME280;47462;59.172;17.196;2022-12-16T09:26:55;101120.94;;;-13.55;67.05
61568;BME280;47462;59.172;17.196;2022-12-16T09:29:39;101123.78;;;-13.50;67.08
61568;BME280;47462;59.172;17.196;2022-12-16T09:32:23;101173.41;;;-13.24;66.82
61568;BME280;47462;59.172;17.196;2022-12-16T09:35:08;101157.88;;;-13.18;66.79
61568;BME280;47462;59.172;17.196;2022-12-16T09:37:52;101168.63;;;-13.09;66.90
61568;BME280;47462;59.172;17.196;2022-12-16T09:40:38;101160.88;;;-13.00;66.91
61568;BME280;47462;59.172;17.196;2022-12-16T09:43:48;101155.88;;;-12.88;66.94
61568;BME280;47462;59.172;17.196;2022-12-16T09:46:50;101134.69;;;-12.92;66.62
61568;BME280;47462;59.172;17.196;2022-12-16T09:49:46;101144.00;;;-12.67;66.53
61568;BME280;47462;59.172;17.196;2022-12-16T09:52:34;101132.81;;;-12.71;66.58
61568;BME280;47462;59.172;17.196;2022-12-16T09:55:25;101141.13;;;-12.60;67.04
61568;BME280;47462;59.172;17.196;2022-12-16T09:58:11;101142.47;;;-12.53;66.78
61568;BME280;47462;59.172;17.196;2022-12-16T10:00:57;100967.25;;;-13.51;66.87
61568;BME280;47462;59.172;17.196;2022-12-16T10:03:45;101133.91;;;-12.44;66.64
61568;BME280;47462;59.172;17.196;2022-12-16T10:06:35;101125.94;;;-12.50;66.97
61568;BME280;47462;59.172;17.196;2022-12-16T10:09:47;101143.53;;;-12.38;67.01
61568;BME280;47462;59.172;17.196;2022-12-16T10:12:44;101135.78;;;-12.29;67.06
61568;BME280;47462;59.172;17.196;2022-12-16T10:15:36;101079.94;;;-12.61;67.23
61568;BME280;47462;59.172;17.196;2022-12-16T10:21:27;101001.41;;;-13.05;67.29
61568;BME280;47462;59.172;17.196;2022-12-16T10:24:39;101170.63;;;-12.10;67.69
61568;BME280;47462;59.172;17.196;2022-12-16T10:27:46;101015.28;;;-12.87;67.51
61568;BME280;47462;59.172;17.196;2022-12-16T10:30:34;101119.69;;;-12.31;67.87
61568;BME280;47462;59.172;17.196;2022-12-16T10:33:21;101166.19;;;-11.89;67.96
61568;BME280;47462;59.172;17.196;2022-12-16T10:36:13;101178.22;;;-11.85;67.96
61568;BME280;47462;59.172;17.196;2022-12-16T10:39:24;101170.31;;;-11.78;68.02
61568;BME280;47462;59.172;17.196;2022-12-16T10:42:31;101173.44;;;-11.69;68.09
61568;BME280;47462;59.172;17.196;2022-12-16T10:48:03;101094.44;;;-11.96;68.09
61568;BME280;47462;59.172;17.196;2022-12-16T10:50:46;101173.94;;;-11.49;68.54
61568;BME280;47462;59.172;17.196;2022-12-16T10:53:30;101175.78;;;-11.46;68.40
61568;BME280;47462;59.172;17.196;2022-12-16T10:59:02;101182.66;;;-11.44;68.76
61568;BME280;47462;59.172;17.196;2022-12-16T11:01:58;101178.34;;;-11.33;68.47
61568;BME280;47462;59.172;17.196;2022-12-16T11:04:42;101200.38;;;-11.31;68.22
61568;BME280;47462;59.172;17.196;2022-12-16T11:07:49;101184.38;;;-11.31;68.67
61568;BME280;47462;59.172;17.196;2022-12-16T11:16:25;101188.78;;;-11.15;69.04
61568;BME280;47462;59.172;17.196;2022-12-16T11:19:27;101121.50;;;-11.55;68.93
61568;BME280;47462;59.172;17.196;2022-12-16T11:22:18;101198.50;;;-11.08;69.29
61568;BME280;47462;59.172;17.196;2022-12-16T11:28:25;101199.22;;;-10.97;68.96
61568;BME280;47462;59.172;17.196;2022-12-16T11:31:13;101174.38;;;-11.04;69.06
61568;BME280;47462;59.172;17.196;2022-12-16T11:33:59;101089.03;;;-11.63;68.72
61568;BME280;47462;59.172;17.196;2022-12-16T11:37:00;101203.09;;;-10.89;69.06
61568;BME280;47462;59.172;17.196;2022-12-16T11:39:44;101172.34;;;-11.10;69.10
61568;BME280;47462;59.172;17.196;2022-12-16T11:42:31;101209.44;;;-10.82;69.56
61568;BME280;47462;59.172;17.196;2022-12-16T11:45:18;101213.91;;;-10.78;69.85
61568;BME280;47462;59.172;17.196;2022-12-16T11:48:21;101212.38;;;-10.76;69.54
61568;BME280;47462;59.172;17.196;2022-12-16T11:51:10;101112.38;;;-11.27;69.50
61568;BME280;47462;59.172;17.196;2022-12-16T11:54:23;101204.81;;;-10.76;69.81
61568;BME280;47462;59.172;17.196;2022-12-16T11:57:32;101214.09;;;-10.75;69.78
61568;BME280;47462;59.172;17.196;2022-12-16T12:00:20;101210.25;;;-10.70;69.78
61568;BME280;47462;59.172;17.196;2022-12-16T12:03:14;101208.13;;;-10.64;69.93
61568;BME280;47462;59.172;17.196;2022-12-16T12:09:26;101216.53;;;-10.63;69.73
61568;BME280;47462;59.172;17.196;2022-12-16T12:12:22;101212.38;;;-10.63;69.71
61568;BME280;47462;59.172;17.196;2022-12-16T12:19:09;101222.34;;;-10.64;69.75
61568;BME280;47462;59.172;17.196;2022-12-16T12:28:01;101213.16;;;-10.64;70.12
61568;BME280;47462;59.172;17.196;2022-12-16T12:31:05;101224.78;;;-10.66;70.22
61568;BME280;47462;59.172;17.196;2022-12-16T12:34:27;101229.63;;;-10.69;70.37
61568;BME280;47462;59.172;17.196;2022-12-16T12:37:25;101204.41;;;-10.82;70.23
61568;BME280;47462;59.172;17.196;2022-12-16T12:43:39;101232.25;;;-10.67;70.19
61568;BME280;47462;59.172;17.196;2022-12-16T12:46:41;101217.81;;;-10.70;70.20
61568;BME280;47462;59.172;17.196;2022-12-16T12:49:54;101228.88;;;-10.54;70.60
61568;BME280;47462;59.172;17.196;2022-12-16T12:52:55;101222.28;;;-10.52;70.47
61568;BME280;47462;59.172;17.196;2022-12-16T12:58:50;101227.34;;;-10.52;70.37
61568;BME280;47462;59.172;17.196;2022-12-16T13:01:35;101232.28;;;-10.54;70.27
61568;BME280;47462;59.172;17.196;2022-12-16T13:04:23;101236.47;;;-10.54;70.66
61568;BME280;47462;59.172;17.196;2022-12-16T13:07:09;101239.94;;;-10.52;70.35
61568;BME280;47462;59.172;17.196;2022-12-16T13:15:59;101234.91;;;-10.52;70.79
61568;BME280;47462;59.172;17.196;2022-12-16T13:18:44;101237.41;;;-10.52;70.44
61568;BME280;47462;59.172;17.196;2022-12-16T13:27:10;101253.22;;;-10.55;70.74
61568;BME280;47462;59.172;17.196;2022-12-16T13:30:22;101258.38;;;-10.67;70.53
61568;BME280;47462;59.172;17.196;2022-12-16T13:33:27;101258.38;;;-10.67;70.52
61568;BME280;47462;59.172;17.196;2022-12-16T13:36:14;101251.00;;;-10.64;70.34
61568;BME280;47462;59.172;17.196;2022-12-16T13:39:26;101193.47;;;-11.08;70.61
61568;BME280;47462;59.172;17.196;2022-12-16T13:45:27;101251.31;;;-10.84;70.68
61568;BME280;47462;59.172;17.196;2022-12-16T13:54:50;101268.63;;;-11.02;70.55
61568;BME280;47462;59.172;17.196;2022-12-16T13:57:40;101271.25;;;-11.01;70.45
61568;BME280;47462;59.172;17.196;2022-12-16T14:00:26;101234.78;;;-11.31;70.82
61568;BME280;47462;59.172;17.196;2022-12-16T14:03:21;101244.06;;;-11.30;70.69
61568;BME280;47462;59.172;17.196;2022-12-16T14:06:16;101106.19;;;-12.08;70.38
61568;BME280;47462;59.172;17.196;2022-12-16T14:09:01;101233.66;;;-11.35;70.47
61568;BME280;47462;59.172;17.196;2022-12-16T14:11:58;101274.16;;;-11.20;70.62
61568;BME280;47462;59.172;17.196;2022-12-16T14:15:12;101288.50;;;-11.19;70.70
61568;BME280;47462;59.172;17.196;2022-12-16T14:18:10;101291.03;;;-11.19;70.48
61568;BME280;47462;59.172;17.196;2022-12-16T14:21:01;101298.81;;;-11.16;70.56
61568;BME280;47462;59.172;17.196;2022-12-16T14:23:57;101290.81;;;-11.22;70.58
61568;BME280;47462;59.172;17.196;2022-12-16T14:26:45;101246.88;;;-11.51;70.33
61568;BME280;47462;59.172;17.196;2022-12-16T14:29:30;101283.41;;;-11.32;70.38
61568;BME280;47462;59.172;17.196;2022-12-16T14:32:33;101232.25;;;-11.68;70.44
61568;BME280;47462;59.172;17.196;2022-12-16T14:35:22;101244.47;;;-11.61;70.42
61568;BME280;47462;59.172;17.196;2022-12-16T14:38:26;101288.47;;;-11.44;70.21
61568;BME280;47462;59.172;17.196;2022-12-16T14:41:21;101294.19;;;-11.46;69.74
61568;BME280;47462;59.172;17.196;2022-12-16T14:44:16;101288.59;;;-11.54;69.90
61568;BME280;47462;59.172;17.196;2022-12-16T14:47:01;101229.69;;;-11.93;69.68
61568;BME280;47462;59.172;17.196;2022-12-16T14:49:53;101317.41;;;-11.62;70.08
61568;BME280;47462;59.172;17.196;2022-12-16T14:52:37;101294.88;;;-11.73;70.06
61568;BME280;47462;59.172;17.196;2022-12-16T14:58:14;101299.91;;;-11.73;69.71
61568;BME280;47462;59.172;17.196;2022-12-16T15:01:23;101325.53;;;-11.67;69.60
61568;BME280;47462;59.172;17.196;2022-12-16T15:04:16;101334.28;;;-11.61;69.58
61568;BME280;47462;59.172;17.196;2022-12-16T15:07:05;100952.78;;;-13.89;69.54
61568;BME280;47462;59.172;17.196;2022-12-16T15:09:54;101345.25;;;-11.73;69.43
61568;BME280;47462;59.172;17.196;2022-12-16T15:12:42;101348.28;;;-11.77;69.79
61568;BME280;47462;59.172;17.196;2022-12-16T15:15:41;101213.28;;;-12.59;69.69
61568;BME280;47462;59.172;17.196;2022-12-16T15:18:34;101331.22;;;-11.93;69.48
61568;BME280;47462;59.172;17.196;2022-12-16T15:21:20;101353.66;;;-11.84;69.32
61568;BME280;47462;59.172;17.196;2022-12-16T15:24:08;101348.50;;;-11.86;69.56
61568;BME280;47462;59.172;17.196;2022-12-16T15:27:22;101352.56;;;-11.88;69.45